sensor_id;sensor_type;location;lat;lon;timestamp;P1;durP1;ratioP1;P2;durP2;ratioP2
33740;SDS011;20065;48.380;10.892;2022-11-15T00:02:09;10.25;;;6.85;;
33740;SDS011;20065;48.380;10.892;2022-11-15T00:05:14;11.20;;;6.88;;
33740;SDS011;20065;48.380;10.892;2022-11-15T00:08:19;9.43;;;5.75;;
33740;SDS011;20065;48.380;10.892;2022-11-15T00:11:24;9.98;;;6.05;;
33740;SDS011;20065;48.380;10.892;2022-11-15T00:14:28;11.43;;;5.65;;
33740;SDS011;20065;48.380;10.892;2022-11-15T00:17:33;10.55;;;6.00;;
33740;SDS011;20065;48.380;10.892;2022-11-15T00:20:38;9.80;;;6.72;;
33740;SDS011;20065;48.380;10.892;2022-11-15T00:23:43;11.73;;;6.45;;
33740;SDS011;20065;48.380;10.892;2022-11-15T00:26:48;11.52;;;5.55;;
33740;SDS011;20065;48.380;10.892;2022-11-15T00:29:53;11.10;;;6.50;;
33740;SDS011;20065;48.380;10.892;2022-11-15T00:33:01;9.35;;;5.40;;
33740;SDS011;20065;48.380;10.892;2022-11-15T00:36:07;7.93;;;5.57;;
33740;SDS011;20065;48.380;10.892;2022-11-15T00:39:13;8.00;;;5.22;;
33740;SDS011;20065;48.380;10.892;2022-11-15T00:42:17;9.63;;;4.63;;
33740;SDS011;20065;48.380;10.892;2022-11-15T00:45:23;9.85;;;5.88;;
33740;SDS011;20065;48.380;10.892;2022-11-15T00:48:28;9.52;;;5.90;;
33740;SDS011;20065;48.380;10.892;2022-11-15T00:51:33;10.13;;;6.53;;
33740;SDS011;20065;48.380;10.892;2022-11-15T00:54:41;9.40;;;5.90;;
33740;SDS011;20065;48.380;10.892;2022-11-15T00:57:46;10.30;;;6.60;;
33740;SDS011;20065;48.380;10.892;2022-11-15T01:00:51;13.02;;;7.40;;
33740;SDS011;20065;48.380;10.892;2022-11-15T01:03:55;10.00;;;6.93;;
33740;SDS011;20065;48.380;10.892;2022-11-15T01:07:01;11.75;;;7.60;;
33740;SDS011;20065;48.380;10.892;2022-11-15T01:10:06;11.30;;;6.60;;
33740;SDS011;20065;48.380;10.892;2022-11-15T01:13:11;11.73;;;6.70;;
33740;SDS011;20065;48.380;10.892;2022-11-15T01:16:17;10.48;;;7.32;;
33740;SDS011;20065;48.380;10.892;2022-11-15T01:19:22;10.68;;;7.13;;
33740;SDS011;20065;48.380;10.892;2022-11-15T01:22:30;10.65;;;6.90;;
33740;SDS011;20065;48.380;10.892;2022-11-15T01:25:35;11.55;;;7.88;;
33740;SDS011;20065;48.380;10.892;2022-11-15T01:28:41;13.70;;;7.97;;
33740;SDS011;20065;48.380;10.892;2022-11-15T01:31:46;11.93;;;8.25;;
33740;SDS011;20065;48.380;10.892;2022-11-15T01:34:50;12.40;;;7.22;;
33740;SDS011;20065;48.380;10.892;2022-11-15T01:37:55;14.23;;;8.07;;
33740;SDS011;20065;48.380;10.892;2022-11-15T01:41:00;11.50;;;7.40;;
33740;SDS011;20065;48.380;10.892;2022-11-15T01:47:38;12.20;;;7.28;;
33740;SDS011;20065;48.380;10.892;2022-11-15T01:50:45;10.13;;;6.80;;
33740;SDS011;20065;48.380;10.892;2022-11-15T01:53:51;15.23;;;8.30;;
33740;SDS011;20065;48.380;10.892;2022-11-15T01:57:01;16.10;;;6.95;;
33740;SDS011;20065;48.380;10.892;2022-11-15T02:00:10;11.88;;;8.10;;
33740;SDS011;20065;48.380;10.892;2022-11-15T02:03:15;13.07;;;7.30;;
33740;SDS011;20065;48.380;10.892;2022-11-15T02:06:21;11.85;;;7.28;;
33740;SDS011;20065;48.380;10.892;2022-11-15T02:09:26;13.60;;;7.22;;
33740;SDS011;20065;48.380;10.892;2022-11-15T02:12:31;11.80;;;8.07;;
33740;SDS011;20065;48.380;10.892;2022-11-15T02:15:38;13.82;;;7.82;;
33740;SDS011;20065;48.380;10.892;2022-11-15T02:32:20;14.77;;;7.10;;
33740;SDS011;20065;48.380;10.892;2022-11-15T02:42:33;13.38;;;7.05;;
33740;SDS011;20065;48.380;10.892;2022-11-15T02:46:10;11.10;;;7.82;;
33740;SDS011;20065;48.380;10.892;2022-11-15T02:49:54;11.25;;;7.50;;
33740;SDS011;20065;48.380;10.892;2022-11-15T02:53:04;10.25;;;7.40;;
33740;SDS011;20065;48.380;10.892;2022-11-15T02:56:10;12.23;;;7.97;;
33740;SDS011;20065;48.380;10.892;2022-11-15T03:09:28;10.30;;;7.10;;
33740;SDS011;20065;48.380;10.892;2022-11-15T03:20:13;10.65;;;6.90;;
33740;SDS011;20065;48.380;10.892;2022-11-15T03:23:21;11.32;;;7.57;;
33740;SDS011;20065;48.380;10.892;2022-11-15T03:26:27;11.43;;;7.55;;
33740;SDS011;20065;48.380;10.892;2022-11-15T03:29:34;11.90;;;8.10;;
33740;SDS011;20065;48.380;10.892;2022-11-15T03:32:47;10.52;;;7.57;;
33740;SDS011;20065;48.380;10.892;2022-11-15T03:36:00;11.88;;;7.55;;
33740;SDS011;20065;48.380;10.892;2022-11-15T03:39:06;11.68;;;7.45;;
33740;SDS011;20065;48.380;10.892;2022-11-15T03:45:32;16.58;;;8.18;;
33740;SDS011;20065;48.380;10.892;2022-11-15T03:48:56;13.07;;;7.97;;
33740;SDS011;20065;48.380;10.892;2022-11-15T03:52:10;13.30;;;7.28;;
33740;SDS011;20065;48.380;10.892;2022-11-15T03:55:17;11.35;;;7.75;;
33740;SDS011;20065;48.380;10.892;2022-11-15T03:58:23;13.57;;;8.23;;
33740;SDS011;20065;48.380;10.892;2022-11-15T04:01:28;11.77;;;7.97;;
33740;SDS011;20065;48.380;10.892;2022-11-15T04:04:33;12.57;;;8.15;;
33740;SDS011;20065;48.380;10.892;2022-11-15T04:07:38;12.57;;;8.07;;
33740;SDS011;20065;48.380;10.892;2022-11-15T04:10:42;10.88;;;7.80;;
33740;SDS011;20065;48.380;10.892;2022-11-15T04:13:47;13.60;;;8.30;;
33740;SDS011;20065;48.380;10.892;2022-11-15T04:16:51;13.00;;;7.75;;
33740;SDS011;20065;48.380;10.892;2022-11-15T04:19:56;10.20;;;7.55;;
33740;SDS011;20065;48.380;10.892;2022-11-15T04:23:20;12.13;;;7.53;;
33740;SDS011;20065;48.380;10.892;2022-11-15T04:26:45;12.05;;;7.43;;
33740;SDS011;20065;48.380;10.892;2022-11-15T04:29:50;12.50;;;8.23;;
33740;SDS011;20065;48.380;10.892;2022-11-15T04:32:55;13.00;;;7.88;;
33740;SDS011;20065;48.380;10.892;2022-11-15T04:36:00;14.38;;;8.20;;
33740;SDS011;20065;48.380;10.892;2022-11-15T04:39:23;10.93;;;7.80;;
33740;SDS011;20065;48.380;10.892;2022-11-15T04:42:28;13.48;;;7.82;;
33740;SDS011;20065;48.380;10.892;2022-11-15T04:45:33;9.95;;;7.18;;
33740;SDS011;20065;48.380;10.892;2022-11-15T04:48:37;13.88;;;7.60;;
33740;SDS011;20065;48.380;10.892;2022-11-15T04:51:42;13.48;;;7.43;;
33740;SDS011;20065;48.380;10.892;2022-11-15T04:54:48;10.88;;;7.22;;
33740;SDS011;20065;48.380;10.892;2022-11-15T04:58:00;15.57;;;7.30;;
33740;SDS011;20065;48.380;10.892;2022-11-15T05:01:07;11.90;;;7.20;;
33740;SDS011;20065;48.380;10.892;2022-11-15T05:04:13;11.13;;;6.65;;
33740;SDS011;20065;48.380;10.892;2022-11-15T05:07:23;12.70;;;7.85;;
33740;SDS011;20065;48.380;10.892;2022-11-15T05:10:28;12.05;;;7.80;;
33740;SDS011;20065;48.380;10.892;2022-11-15T05:13:33;10.18;;;7.70;;
33740;SDS011;20065;48.380;10.892;2022-11-15T05:16:38;13.45;;;7.55;;
33740;SDS011;20065;48.380;10.892;2022-11-15T05:19:43;12.85;;;7.95;;
33740;SDS011;20065;48.380;10.892;2022-11-15T05:22:52;10.82;;;7.43;;
33740;SDS011;20065;48.380;10.892;2022-11-15T05:25:59;11.57;;;7.82;;
33740;SDS011;20065;48.380;10.892;2022-11-15T05:29:04;11.07;;;7.65;;
33740;SDS011;20065;48.380;10.892;2022-11-15T05:32:09;13.88;;;7.68;;
33740;SDS011;20065;48.380;10.892;2022-11-15T05:35:27;11.95;;;7.68;;
33740;SDS011;20065;48.380;10.892;2022-11-15T05:38:42;16.98;;;7.90;;
33740;SDS011;20065;48.380;10.892;2022-11-15T05:41:49;10.98;;;7.78;;
33740;SDS011;20065;48.380;10.892;2022-11-15T05:45:00;12.05;;;7.68;;
33740;SDS011;20065;48.380;10.892;2022-11-15T05:48:13;12.60;;;8.13;;
33740;SDS011;20065;48.380;10.892;2022-11-15T05:51:18;12.23;;;7.65;;
33740;SDS011;20065;48.380;10.892;2022-11-15T05:54:25;11.90;;;7.32;;
33740;SDS011;20065;48.380;10.892;2022-11-15T05:57:30;9.25;;;6.60;;
33740;SDS011;20065;48.380;10.892;2022-11-15T06:00:35;11.00;;;7.90;;
33740;SDS011;20065;48.380;10.892;2022-11-15T06:03:40;13.63;;;7.80;;
33740;SDS011;20065;48.380;10.892;2022-11-15T06:06:45;13.55;;;8.52;;
33740;SDS011;20065;48.380;10.892;2022-11-15T06:09:50;11.65;;;7.88;;
33740;SDS011;20065;48.380;10.892;2022-11-15T06:12:58;10.43;;;7.10;;
33740;SDS011;20065;48.380;10.892;2022-11-15T06:16:04;9.18;;;6.53;;
33740;SDS011;20065;48.380;10.892;2022-11-15T06:19:09;13.07;;;7.85;;
33740;SDS011;20065;48.380;10.892;2022-11-15T06:22:14;10.93;;;8.15;;
33740;SDS011;20065;48.380;10.892;2022-11-15T06:25:18;11.80;;;7.32;;
33740;SDS011;20065;48.380;10.892;2022-11-15T06:28:23;13.02;;;9.00;;
33740;SDS011;20065;48.380;10.892;2022-11-15T06:31:27;14.18;;;8.48;;
33740;SDS011;20065;48.380;10.892;2022-11-15T06:34:32;14.60;;;7.45;;
33740;SDS011;20065;48.380;10.892;2022-11-15T06:37:37;12.20;;;7.68;;
33740;SDS011;20065;48.380;10.892;2022-11-15T06:40:42;11.98;;;8.75;;
33740;SDS011;20065;48.380;10.892;2022-11-15T06:43:47;16.73;;;7.60;;
33740;SDS011;20065;48.380;10.892;2022-11-15T06:46:52;10.80;;;7.57;;
33740;SDS011;20065;48.380;10.892;2022-11-15T06:49:57;12.52;;;7.97;;
33740;SDS011;20065;48.380;10.892;2022-11-15T06:53:05;12.90;;;8.80;;
33740;SDS011;20065;48.380;10.892;2022-11-15T06:56:10;16.73;;;9.73;;
33740;SDS011;20065;48.380;10.892;2022-11-15T06:59:15;19.42;;;9.48;;
33740;SDS011;20065;48.380;10.892;2022-11-15T07:02:22;13.95;;;9.35;;
33740;SDS011;20065;48.380;10.892;2022-11-15T07:05:28;17.52;;;10.10;;
33740;SDS011;20065;48.380;10.892;2022-11-15T07:08:33;17.85;;;9.80;;
33740;SDS011;20065;48.380;10.892;2022-11-15T07:11:39;20.17;;;9.85;;
33740;SDS011;20065;48.380;10.892;2022-11-15T07:14:44;17.50;;;10.77;;
33740;SDS011;20065;48.380;10.892;2022-11-15T07:17:49;30.08;;;16.77;;
33740;SDS011;20065;48.380;10.892;2022-11-15T07:20:54;27.70;;;13.88;;
33740;SDS011;20065;48.380;10.892;2022-11-15T07:23:59;21.50;;;14.70;;
33740;SDS011;20065;48.380;10.892;2022-11-15T07:27:03;23.35;;;13.23;;
33740;SDS011;20065;48.380;10.892;2022-11-15T07:30:09;18.30;;;11.68;;
33740;SDS011;20065;48.380;10.892;2022-11-15T07:33:14;18.65;;;10.20;;
33740;SDS011;20065;48.380;10.892;2022-11-15T07:36:19;14.57;;;8.82;;
33740;SDS011;20065;48.380;10.892;2022-11-15T07:39:24;18.27;;;10.10;;
33740;SDS011;20065;48.380;10.892;2022-11-15T07:42:30;15.77;;;10.18;;
33740;SDS011;20065;48.380;10.892;2022-11-15T07:45:54;14.65;;;10.20;;
33740;SDS011;20065;48.380;10.892;2022-11-15T07:49:00;25.13;;;17.05;;
33740;SDS011;20065;48.380;10.892;2022-11-15T07:52:05;14.60;;;9.38;;
33740;SDS011;20065;48.380;10.892;2022-11-15T07:55:10;12.10;;;7.60;;
33740;SDS011;20065;48.380;10.892;2022-11-15T07:58:15;11.38;;;7.43;;
33740;SDS011;20065;48.380;10.892;2022-11-15T08:01:19;13.20;;;8.43;;
33740;SDS011;20065;48.380;10.892;2022-11-15T08:04:24;14.35;;;8.52;;
33740;SDS011;20065;48.380;10.892;2022-11-15T08:07:29;10.65;;;8.18;;
33740;SDS011;20065;48.380;10.892;2022-11-15T08:10:35;11.20;;;7.85;;
33740;SDS011;20065;48.380;10.892;2022-11-15T08:13:40;12.00;;;8.02;;
33740;SDS011;20065;48.380;10.892;2022-11-15T08:16:45;15.48;;;8.27;;
33740;SDS011;20065;48.380;10.892;2022-11-15T08:19:50;13.98;;;8.05;;
33740;SDS011;20065;48.380;10.892;2022-11-15T08:22:56;18.70;;;8.75;;
33740;SDS011;20065;48.380;10.892;2022-11-15T08:26:02;13.20;;;7.40;;
33740;SDS011;20065;48.380;10.892;2022-11-15T08:29:07;15.77;;;8.43;;
33740;SDS011;20065;48.380;10.892;2022-11-15T08:32:12;10.82;;;7.55;;
33740;SDS011;20065;48.380;10.892;2022-11-15T08:35:17;9.70;;;6.35;;
33740;SDS011;20065;48.380;10.892;2022-11-15T08:38:22;11.93;;;6.45;;
33740;SDS011;20065;48.380;10.892;2022-11-15T08:41:29;12.15;;;6.70;;
33740;SDS011;20065;48.380;10.892;2022-11-15T08:44:39;10.02;;;6.82;;
33740;SDS011;20065;48.380;10.892;2022-11-15T08:47:44;7.85;;;5.47;;
33740;SDS011;20065;48.380;10.892;2022-11-15T08:50:48;9.52;;;5.45;;
33740;SDS011;20065;48.380;10.892;2022-11-15T08:53:56;9.75;;;6.75;;
33740;SDS011;20065;48.380;10.892;2022-11-15T08:57:01;12.48;;;6.20;;
33740;SDS011;20065;48.380;10.892;2022-11-15T09:00:07;8.30;;;5.95;;
33740;SDS011;20065;48.380;10.892;2022-11-15T09:03:13;8.23;;;5.55;;
33740;SDS011;20065;48.380;10.892;2022-11-15T09:06:18;6.07;;;4.93;;
33740;SDS011;20065;48.380;10.892;2022-11-15T09:09:22;11.52;;;7.25;;
33740;SDS011;20065;48.380;10.892;2022-11-15T09:12:27;11.93;;;6.50;;
33740;SDS011;20065;48.380;10.892;2022-11-15T09:15:32;9.63;;;6.72;;
33740;SDS011;20065;48.380;10.892;2022-11-15T09:18:37;7.68;;;5.47;;
33740;SDS011;20065;48.380;10.892;2022-11-15T09:21:42;13.13;;;5.70;;
33740;SDS011;20065;48.380;10.892;2022-11-15T09:24:47;11.50;;;8.40;;
33740;SDS011;20065;48.380;10.892;2022-11-15T09:27:51;12.65;;;7.20;;
33740;SDS011;20065;48.380;10.892;2022-11-15T09:31:00;8.45;;;6.20;;
33740;SDS011;20065;48.380;10.892;2022-11-15T09:34:08;11.77;;;5.88;;
33740;SDS011;20065;48.380;10.892;2022-11-15T09:37:12;7.87;;;5.40;;
33740;SDS011;20065;48.380;10.892;2022-11-15T09:40:17;10.13;;;6.10;;
33740;SDS011;20065;48.380;10.892;2022-11-15T09:47:27;8.27;;;3.60;;
33740;SDS011;20065;48.380;10.892;2022-11-15T09:50:55;6.60;;;3.90;;
33740;SDS011;20065;48.380;10.892;2022-11-15T09:56:40;7.00;;;4.20;;
33740;SDS011;20065;48.380;10.892;2022-11-15T10:05:44;14.63;;;7.17;;
33740;SDS011;20065;48.380;10.892;2022-11-15T10:11:39;6.10;;;4.10;;
33740;SDS011;20065;48.380;10.892;2022-11-15T10:14:27;7.70;;;3.80;;
33740;SDS011;20065;48.380;10.892;2022-11-15T10:20:21;6.80;;;4.90;;
33740;SDS011;20065;48.380;10.892;2022-11-15T10:23:21;6.53;;;4.20;;
33740;SDS011;20065;48.380;10.892;2022-11-15T10:26:11;7.27;;;4.37;;
33740;SDS011;20065;48.380;10.892;2022-11-15T10:29:01;7.13;;;4.50;;
33740;SDS011;20065;48.380;10.892;2022-11-15T10:31:47;6.03;;;4.00;;
33740;SDS011;20065;48.380;10.892;2022-11-15T10:34:35;6.63;;;4.17;;
33740;SDS011;20065;48.380;10.892;2022-11-15T10:37:28;6.37;;;3.60;;
33740;SDS011;20065;48.380;10.892;2022-11-15T10:40:25;5.83;;;3.63;;
33740;SDS011;20065;48.380;10.892;2022-11-15T10:45:59;7.77;;;3.63;;
33740;SDS011;20065;48.380;10.892;2022-11-15T10:49:16;5.50;;;3.93;;
33740;SDS011;20065;48.380;10.892;2022-11-15T10:52:16;6.50;;;3.70;;
33740;SDS011;20065;48.380;10.892;2022-11-15T10:55:27;9.93;;;4.60;;
33740;SDS011;20065;48.380;10.892;2022-11-15T11:01:19;7.97;;;3.87;;
33740;SDS011;20065;48.380;10.892;2022-11-15T11:04:08;6.07;;;3.80;;
33740;SDS011;20065;48.380;10.892;2022-11-15T11:06:56;6.83;;;3.43;;
33740;SDS011;20065;48.380;10.892;2022-11-15T11:09:44;5.50;;;3.57;;
33740;SDS011;20065;48.380;10.892;2022-11-15T11:12:36;5.17;;;3.43;;
33740;SDS011;20065;48.380;10.892;2022-11-15T11:15:24;6.90;;;4.30;;
33740;SDS011;20065;48.380;10.892;2022-11-15T11:18:26;7.13;;;4.10;;
33740;SDS011;20065;48.380;10.892;2022-11-15T11:21:26;9.30;;;4.03;;
33740;SDS011;20065;48.380;10.892;2022-11-15T11:24:43;7.90;;;4.80;;
33740;SDS011;20065;48.380;10.892;2022-11-15T11:27:43;6.80;;;4.33;;
33740;SDS011;20065;48.380;10.892;2022-11-15T11:31:05;7.83;;;4.23;;
33740;SDS011;20065;48.380;10.892;2022-11-15T11:40:40;8.37;;;3.87;;
33740;SDS011;20065;48.380;10.892;2022-11-15T11:43:42;5.70;;;3.60;;
33740;SDS011;20065;48.380;10.892;2022-11-15T11:46:41;6.03;;;4.37;;
33740;SDS011;20065;48.380;10.892;2022-11-15T11:55:50;6.90;;;4.43;;
33740;SDS011;20065;48.380;10.892;2022-11-15T11:58:43;6.30;;;3.67;;
33740;SDS011;20065;48.380;10.892;2022-11-15T12:01:36;6.87;;;3.83;;
33740;SDS011;20065;48.380;10.892;2022-11-15T12:07:22;7.50;;;4.00;;
33740;SDS011;20065;48.380;10.892;2022-11-15T12:10:24;7.80;;;3.83;;
33740;SDS011;20065;48.380;10.892;2022-11-15T12:13:19;6.10;;;3.73;;
33740;SDS011;20065;48.380;10.892;2022-11-15T12:16:23;9.57;;;4.33;;
33740;SDS011;20065;48.380;10.892;2022-11-15T12:19:13;5.87;;;3.50;;
33740;SDS011;20065;48.380;10.892;2022-11-15T12:22:02;7.23;;;3.80;;
33740;SDS011;20065;48.380;10.892;2022-11-15T12:25:00;10.13;;;4.17;;
33740;SDS011;20065;48.380;10.892;2022-11-15T12:33:51;6.57;;;4.63;;
33740;SDS011;20065;48.380;10.892;2022-11-15T12:36:45;9.23;;;4.67;;
33740;SDS011;20065;48.380;10.892;2022-11-15T12:43:37;10.37;;;4.80;;
33740;SDS011;20065;48.380;10.892;2022-11-15T12:52:12;8.80;;;5.20;;
33740;SDS011;20065;48.380;10.892;2022-11-15T12:54:59;5.73;;;4.10;;
33740;SDS011;20065;48.380;10.892;2022-11-15T12:57:47;6.97;;;4.43;;
33740;SDS011;20065;48.380;10.892;2022-11-15T13:03:23;8.13;;;5.40;;
33740;SDS011;20065;48.380;10.892;2022-11-15T13:09:50;7.93;;;4.17;;
33740;SDS011;20065;48.380;10.892;2022-11-15T13:18:34;9.30;;;3.97;;
33740;SDS011;20065;48.380;10.892;2022-11-15T13:21:24;7.23;;;4.50;;
33740;SDS011;20065;48.380;10.892;2022-11-15T13:24:29;5.80;;;4.27;;
33740;SDS011;20065;48.380;10.892;2022-11-15T13:27:15;6.80;;;4.50;;
33740;SDS011;20065;48.380;10.892;2022-11-15T13:30:05;11.40;;;5.10;;
33740;SDS011;20065;48.380;10.892;2022-11-15T13:33:00;13.53;;;5.60;;
33740;SDS011;20065;48.380;10.892;2022-11-15T13:36:13;8.83;;;5.50;;
33740;SDS011;20065;48.380;10.892;2022-11-15T13:39:25;10.88;;;5.82;;
33740;SDS011;20065;48.380;10.892;2022-11-15T13:42:19;16.00;;;5.90;;
33740;SDS011;20065;48.380;10.892;2022-11-15T13:45:12;14.30;;;5.70;;
33740;SDS011;20065;48.380;10.892;2022-11-15T13:48:02;7.83;;;5.60;;
33740;SDS011;20065;48.380;10.892;2022-11-15T13:50:49;6.77;;;5.10;;
33740;SDS011;20065;48.380;10.892;2022-11-15T13:53:35;8.93;;;6.00;;
33740;SDS011;20065;48.380;10.892;2022-11-15T13:56:24;8.75;;;5.95;;
33740;SDS011;20065;48.380;10.892;2022-11-15T13:59:15;10.25;;;6.13;;
33740;SDS011;20065;48.380;10.892;2022-11-15T14:02:15;8.93;;;5.70;;
33740;SDS011;20065;48.380;10.892;2022-11-15T14:08:25;13.77;;;5.47;;
33740;SDS011;20065;48.380;10.892;2022-11-15T14:11:15;9.18;;;5.53;;
33740;SDS011;20065;48.380;10.892;2022-11-15T14:14:11;7.40;;;5.40;;
33740;SDS011;20065;48.380;10.892;2022-11-15T14:17:00;13.40;;;6.10;;
33740;SDS011;20065;48.380;10.892;2022-11-15T14:19:47;8.83;;;5.27;;
33740;SDS011;20065;48.380;10.892;2022-11-15T14:22:33;6.40;;;4.40;;
33740;SDS011;20065;48.380;10.892;2022-11-15T14:25:21;6.75;;;4.63;;
33740;SDS011;20065;48.380;10.892;2022-11-15T14:30:58;7.70;;;4.63;;
33740;SDS011;20065;48.380;10.892;2022-11-15T14:33:45;7.20;;;4.28;;
33740;SDS011;20065;48.380;10.892;2022-11-15T14:36:32;8.80;;;4.93;;
33740;SDS011;20065;48.380;10.892;2022-11-15T14:39:18;5.65;;;3.55;;
33740;SDS011;20065;48.380;10.892;2022-11-15T14:42:05;11.47;;;4.97;;
33740;SDS011;20065;48.380;10.892;2022-11-15T14:44:55;10.30;;;3.42;;
33740;SDS011;20065;48.380;10.892;2022-11-15T14:47:41;12.43;;;4.10;;
33740;SDS011;20065;48.380;10.892;2022-11-15T14:50:28;7.05;;;5.03;;
33740;SDS011;20065;48.380;10.892;2022-11-15T14:53:15;6.53;;;4.47;;
33740;SDS011;20065;48.380;10.892;2022-11-15T14:56:03;11.87;;;4.47;;
33740;SDS011;20065;48.380;10.892;2022-11-15T14:58:49;6.50;;;4.17;;
33740;SDS011;20065;48.380;10.892;2022-11-15T15:01:35;7.80;;;4.10;;
33740;SDS011;20065;48.380;10.892;2022-11-15T15:04:21;5.72;;;3.45;;
33740;SDS011;20065;48.380;10.892;2022-11-15T15:07:07;9.40;;;4.05;;
33740;SDS011;20065;48.380;10.892;2022-11-15T15:09:54;7.35;;;4.75;;
33740;SDS011;20065;48.380;10.892;2022-11-15T15:12:40;7.72;;;3.80;;
33740;SDS011;20065;48.380;10.892;2022-11-15T15:15:32;6.20;;;3.75;;
33740;SDS011;20065;48.380;10.892;2022-11-15T15:18:20;7.25;;;4.30;;
33740;SDS011;20065;48.380;10.892;2022-11-15T15:21:17;7.88;;;4.10;;
33740;SDS011;20065;48.380;10.892;2022-11-15T15:24:13;9.55;;;4.40;;
33740;SDS011;20065;48.380;10.892;2022-11-15T15:27:03;7.63;;;4.85;;
33740;SDS011;20065;48.380;10.892;2022-11-15T15:29:49;8.48;;;4.28;;
33740;SDS011;20065;48.380;10.892;2022-11-15T15:32:36;10.23;;;4.50;;
33740;SDS011;20065;48.380;10.892;2022-11-15T15:35:22;7.75;;;4.82;;
33740;SDS011;20065;48.380;10.892;2022-11-15T15:38:12;7.50;;;4.70;;
33740;SDS011;20065;48.380;10.892;2022-11-15T15:40:58;7.80;;;4.85;;
33740;SDS011;20065;48.380;10.892;2022-11-15T15:43:47;9.15;;;5.00;;
33740;SDS011;20065;48.380;10.892;2022-11-15T15:46:33;8.43;;;4.47;;
33740;SDS011;20065;48.380;10.892;2022-11-15T15:49:21;9.00;;;5.70;;
33740;SDS011;20065;48.380;10.892;2022-11-15T15:52:07;7.32;;;5.00;;
33740;SDS011;20065;48.380;10.892;2022-11-15T15:54:54;8.15;;;4.68;;
33740;SDS011;20065;48.380;10.892;2022-11-15T15:57:40;12.07;;;5.95;;
33740;SDS011;20065;48.380;10.892;2022-11-15T16:00:26;9.73;;;4.72;;
33740;SDS011;20065;48.380;10.892;2022-11-15T16:03:12;7.97;;;5.55;;
33740;SDS011;20065;48.380;10.892;2022-11-15T16:05:58;7.63;;;4.75;;
33740;SDS011;20065;48.380;10.892;2022-11-15T16:08:45;9.80;;;5.97;;
33740;SDS011;20065;48.380;10.892;2022-11-15T16:11:31;13.30;;;6.80;;
33740;SDS011;20065;48.380;10.892;2022-11-15T16:14:20;13.32;;;7.80;;
33740;SDS011;20065;48.380;10.892;2022-11-15T16:17:18;13.60;;;7.35;;
33740;SDS011;20065;48.380;10.892;2022-11-15T16:20:08;15.80;;;7.30;;
33740;SDS011;20065;48.380;10.892;2022-11-15T16:23:21;12.95;;;7.60;;
33740;SDS011;20065;48.380;10.892;2022-11-15T16:29:12;13.80;;;7.85;;
33740;SDS011;20065;48.380;10.892;2022-11-15T16:31:59;12.60;;;8.30;;
33740;SDS011;20065;48.380;10.892;2022-11-15T16:34:45;13.48;;;8.65;;
33740;SDS011;20065;48.380;10.892;2022-11-15T16:37:32;20.85;;;9.52;;
33740;SDS011;20065;48.380;10.892;2022-11-15T16:40:29;13.93;;;9.60;;
33740;SDS011;20065;48.380;10.892;2022-11-15T16:43:20;15.48;;;8.68;;
33740;SDS011;20065;48.380;10.892;2022-11-15T16:46:08;16.30;;;9.18;;
33740;SDS011;20065;48.380;10.892;2022-11-15T16:49:14;16.27;;;9.23;;
33740;SDS011;20065;48.380;10.892;2022-11-15T16:52:00;15.15;;;10.20;;
33740;SDS011;20065;48.380;10.892;2022-11-15T16:54:47;11.88;;;8.93;;
33740;SDS011;20065;48.380;10.892;2022-11-15T16:57:33;16.05;;;9.00;;
33740;SDS011;20065;48.380;10.892;2022-11-15T17:00:20;14.50;;;8.45;;
33740;SDS011;20065;48.380;10.892;2022-11-15T17:03:06;14.55;;;9.13;;
33740;SDS011;20065;48.380;10.892;2022-11-15T17:05:53;15.82;;;9.18;;
33740;SDS011;20065;48.380;10.892;2022-11-15T17:08:44;13.45;;;8.27;;
33740;SDS011;20065;48.380;10.892;2022-11-15T17:11:31;15.77;;;8.85;;
33740;SDS011;20065;48.380;10.892;2022-11-15T17:14:17;13.32;;;9.02;;
33740;SDS011;20065;48.380;10.892;2022-11-15T17:17:04;14.40;;;8.75;;
33740;SDS011;20065;48.380;10.892;2022-11-15T17:19:50;15.70;;;9.15;;
33740;SDS011;20065;48.380;10.892;2022-11-15T17:22:37;15.93;;;9.70;;
33740;SDS011;20065;48.380;10.892;2022-11-15T17:25:24;20.73;;;9.93;;
33740;SDS011;20065;48.380;10.892;2022-11-15T17:28:10;15.73;;;9.20;;
33740;SDS011;20065;48.380;10.892;2022-11-15T17:30:56;16.25;;;9.93;;
33740;SDS011;20065;48.380;10.892;2022-11-15T17:33:43;21.15;;;11.05;;
33740;SDS011;20065;48.380;10.892;2022-11-15T17:36:30;17.35;;;10.43;;
33740;SDS011;20065;48.380;10.892;2022-11-15T17:39:16;16.25;;;10.45;;
33740;SDS011;20065;48.380;10.892;2022-11-15T17:42:04;19.90;;;10.18;;
33740;SDS011;20065;48.380;10.892;2022-11-15T17:44:50;17.00;;;10.00;;
33740;SDS011;20065;48.380;10.892;2022-11-15T17:47:38;16.70;;;9.80;;
33740;SDS011;20065;48.380;10.892;2022-11-15T17:50:24;16.27;;;9.25;;
33740;SDS011;20065;48.380;10.892;2022-11-15T17:53:10;13.25;;;9.15;;
33740;SDS011;20065;48.380;10.892;2022-11-15T17:56:01;13.75;;;7.90;;
33740;SDS011;20065;48.380;10.892;2022-11-15T17:58:58;14.15;;;8.43;;
33740;SDS011;20065;48.380;10.892;2022-11-15T18:01:45;13.25;;;7.50;;
33740;SDS011;20065;48.380;10.892;2022-11-15T18:04:31;15.02;;;8.55;;
33740;SDS011;20065;48.380;10.892;2022-11-15T18:07:17;11.07;;;7.72;;
33740;SDS011;20065;48.380;10.892;2022-11-15T18:10:04;12.35;;;8.18;;
33740;SDS011;20065;48.380;10.892;2022-11-15T18:12:51;19.90;;;9.82;;
33740;SDS011;20065;48.380;10.892;2022-11-15T18:15:37;17.52;;;11.43;;
33740;SDS011;20065;48.380;10.892;2022-11-15T18:18:23;14.32;;;8.57;;
33740;SDS011;20065;48.380;10.892;2022-11-15T18:21:11;10.65;;;7.53;;
33740;SDS011;20065;48.380;10.892;2022-11-15T18:24:00;17.60;;;9.23;;
33740;SDS011;20065;48.380;10.892;2022-11-15T18:26:47;16.55;;;9.75;;
33740;SDS011;20065;48.380;10.892;2022-11-15T18:29:33;13.85;;;9.38;;
33740;SDS011;20065;48.380;10.892;2022-11-15T18:32:22;13.95;;;9.02;;
33740;SDS011;20065;48.380;10.892;2022-11-15T18:35:08;16.92;;;11.05;;
33740;SDS011;20065;48.380;10.892;2022-11-15T18:37:55;13.82;;;9.40;;
33740;SDS011;20065;48.380;10.892;2022-11-15T18:40:41;14.88;;;9.30;;
33740;SDS011;20065;48.380;10.892;2022-11-15T18:43:27;15.40;;;9.45;;
33740;SDS011;20065;48.380;10.892;2022-11-15T18:46:14;12.10;;;8.93;;
33740;SDS011;20065;48.380;10.892;2022-11-15T18:49:02;14.45;;;9.35;;
33740;SDS011;20065;48.380;10.892;2022-11-15T18:51:48;16.02;;;9.68;;
33740;SDS011;20065;48.380;10.892;2022-11-15T18:54:35;16.73;;;9.77;;
33740;SDS011;20065;48.380;10.892;2022-11-15T18:57:22;13.57;;;9.45;;
33740;SDS011;20065;48.380;10.892;2022-11-15T19:00:08;18.02;;;10.82;;
33740;SDS011;20065;48.380;10.892;2022-11-15T19:02:55;17.42;;;11.15;;
33740;SDS011;20065;48.380;10.892;2022-11-15T19:05:42;21.08;;;11.35;;
33740;SDS011;20065;48.380;10.892;2022-11-15T19:08:28;15.90;;;10.43;;
33740;SDS011;20065;48.380;10.892;2022-11-15T19:11:15;17.60;;;10.43;;
33740;SDS011;20065;48.380;10.892;2022-11-15T19:14:10;16.27;;;10.45;;
33740;SDS011;20065;48.380;10.892;2022-11-15T19:16:57;15.63;;;10.43;;
33740;SDS011;20065;48.380;10.892;2022-11-15T19:19:43;18.00;;;12.07;;
33740;SDS011;20065;48.380;10.892;2022-11-15T19:22:30;19.45;;;12.88;;
33740;SDS011;20065;48.380;10.892;2022-11-15T19:25:16;18.15;;;12.27;;
33740;SDS011;20065;48.380;10.892;2022-11-15T19:28:03;20.10;;;12.40;;
33740;SDS011;20065;48.380;10.892;2022-11-15T19:30:49;18.55;;;12.07;;